sensor_id;sensor_type;location;lat;lon;timestamp;pressure;altitude;pressure_sealevel;temperature;humidity
74936;BME280;63501;55.570;37.488;2023-04-25T00:00:10;98852.13;;;11.89;41.67
74936;BME280;63501;55.570;37.488;2023-04-25T00:02:37;98851.31;;;11.93;42.10
74936;BME280;63501;55.570;37.488;2023-04-25T00:05:05;98848.50;;;11.96;42.04
74936;BME280;63501;55.570;37.488;2023-04-25T00:07:33;98854.41;;;11.98;42.16
74936;BME280;63501;55.570;37.488;2023-04-25T00:10:01;98859.53;;;12.00;42.34
74936;BME280;63501;55.570;37.488;2023-04-25T00:12:28;98851.59;;;12.02;42.37
74936;BME280;63501;55.570;37.488;2023-04-25T00:14:58;98853.19;;;12.03;42.63
74936;BME280;63501;55.570;37.488;2023-04-25T00:17:27;98857.94;;;12.02;42.66
74936;BME280;63501;55.570;37.488;2023-04-25T00:19:54;98859.06;;;12.05;42.74
74936;BME280;63501;55.570;37.488;2023-04-25T00:22:21;98854.69;;;12.07;42.76
74936;BME280;63501;55.570;37.488;2023-04-25T00:24:48;98854.69;;;12.07;42.65
74936;BME280;63501;55.570;37.488;2023-04-25T00:27:16;98858.66;;;12.06;42.67
74936;BME280;63501;55.570;37.488;2023-04-25T00:29:43;98863.06;;;12.04;42.97
74936;BME280;63501;55.570;37.488;2023-04-25T00:32:11;98853.22;;;11.99;42.90
74936;BME280;63501;55.570;37.488;2023-04-25T00:34:39;98866.72;;;11.94;42.95
74936;BME280;63501;55.570;37.488;2023-04-25T00:37:07;98859.28;;;11.90;43.21
74936;BME280;63501;55.570;37.488;2023-04-25T00:39:36;98852.13;;;11.89;43.22
74936;BME280;63501;55.570;37.488;2023-04-25T00:42:03;98849.38;;;11.89;43.58
74936;BME280;63501;55.570;37.488;2023-04-25T00:44:31;98854.91;;;11.89;43.50
74936;BME280;63501;55.570;37.488;2023-04-25T00:47:00;98854.91;;;11.89;43.52
74936;BME280;63501;55.570;37.488;2023-04-25T00:49:30;98854.53;;;11.87;43.58
74936;BME280;63501;55.570;37.488;2023-04-25T00:51:59;98849.00;;;11.87;43.61
74936;BME280;63501;55.570;37.488;2023-04-25T00:54:26;98849.00;;;11.87;43.60
74936;BME280;63501;55.570;37.488;2023-04-25T00:56:53;98849.00;;;11.87;43.61
74936;BME280;63501;55.570;37.488;2023-04-25T00:59:21;98858.09;;;11.88;43.67
74936;BME280;63501;55.570;37.488;2023-04-25T01:01:48;98845.88;;;11.85;44.07
74936;BME280;63501;55.570;37.488;2023-04-25T01:04:17;98854.97;;;11.86;44.09
74936;BME280;63501;55.570;37.488;2023-04-25T01:06:46;98843.88;;;11.86;43.90
74936;BME280;63501;55.570;37.488;2023-04-25T01:09:15;98848.66;;;11.85;44.20
74936;BME280;63501;55.570;37.488;2023-04-25T01:11:44;98847.44;;;11.86;44.38
74936;BME280;63501;55.570;37.488;2023-04-25T01:14:12;98843.88;;;11.86;44.53
74936;BME280;63501;55.570;37.488;2023-04-25T01:16:39;98849.78;;;11.88;44.36
74936;BME280;63501;55.570;37.488;2023-04-25T01:19:09;98837.50;;;11.89;44.31
74936;BME280;63501;55.570;37.488;2023-04-25T01:21:39;98837.88;;;11.91;44.66
74936;BME280;63501;55.570;37.488;2023-04-25T01:24:07;98835.91;;;11.91;44.55
74936;BME280;63501;55.570;37.488;2023-04-25T01:26:36;98827.16;;;11.93;44.66
74936;BME280;63501;55.570;37.488;2023-04-25T01:29:06;98829.50;;;11.95;44.52
74936;BME280;63501;55.570;37.488;2023-04-25T01:31:35;98826.75;;;11.95;44.68
74936;BME280;63501;55.570;37.488;2023-04-25T01:34:03;98827.13;;;11.97;44.88
74936;BME280;63501;55.570;37.488;2023-04-25T01:36:31;98822.38;;;11.97;44.81
74936;BME280;63501;55.570;37.488;2023-04-25T01:39:02;98824.34;;;11.97;44.90
74936;BME280;63501;55.570;37.488;2023-04-25T01:41:33;98823.16;;;11.98;45.12
74936;BME280;63501;55.570;37.488;2023-04-25T01:44:01;98817.97;;;12.00;44.92
74936;BME280;63501;55.570;37.488;2023-04-25T01:46:28;98824.69;;;12.02;45.27
74936;BME280;63501;55.570;37.488;2023-04-25T01:48:56;98816.75;;;12.01;44.98
74936;BME280;63501;55.570;37.488;2023-04-25T01:51:28;98819.94;;;12.03;45.18
74936;BME280;63501;55.570;37.488;2023-04-25T01:53:55;98815.94;;;12.04;45.14
74936;BME280;63501;55.570;37.488;2023-04-25T01:56:29;98810.75;;;12.06;45.16
74936;BME280;63501;55.570;37.488;2023-04-25T01:58:57;98807.97;;;12.09;45.32
74936;BME280;63501;55.570;37.488;2023-04-25T02:01:26;98803.19;;;12.10;45.23
74936;BME280;63501;55.570;37.488;2023-04-25T02:03:54;98800.78;;;12.12;45.37
74936;BME280;63501;55.570;37.488;2023-04-25T02:06:22;98816.22;;;12.13;45.24
74936;BME280;63501;55.570;37.488;2023-04-25T02:08:52;98811.47;;;12.13;45.16
74936;BME280;63501;55.570;37.488;2023-04-25T02:11:20;98811.03;;;12.15;45.03
74936;BME280;63501;55.570;37.488;2023-04-25T02:13:49;98828.44;;;12.15;45.23
74936;BME280;63501;55.570;37.488;2023-04-25T02:16:19;98832.44;;;12.14;45.30
74936;BME280;63501;55.570;37.488;2023-04-25T02:18:47;98825.72;;;12.12;45.21
74936;BME280;63501;55.570;37.488;2023-04-25T02:21:14;98822.94;;;12.12;45.30
74936;BME280;63501;55.570;37.488;2023-04-25T02:23:41;98816.63;;;12.11;45.42
74936;BME280;63501;55.570;37.488;2023-04-25T02:26:08;98818.63;;;12.11;45.76
74936;BME280;63501;55.570;37.488;2023-04-25T02:28:36;98819.03;;;12.09;45.46
74936;BME280;63501;55.570;37.488;2023-04-25T02:31:05;98824.59;;;12.09;45.79
74936;BME280;63501;55.570;37.488;2023-04-25T02:33:32;98815.13;;;12.07;46.16
74936;BME280;63501;55.570;37.488;2023-04-25T02:36:00;98818.28;;;12.05;45.99
74936;BME280;63501;55.570;37.488;2023-04-25T02:38:28;98815.94;;;12.04;46.02
74936;BME280;63501;55.570;37.488;2023-04-25T02:40:55;98815.94;;;12.04;46.44
74936;BME280;63501;55.570;37.488;2023-04-25T02:43:23;98814.38;;;12.03;46.16
74936;BME280;63501;55.570;37.488;2023-04-25T02:45:50;98819.16;;;12.02;46.78
74936;BME280;63501;55.570;37.488;2023-04-25T02:48:18;98813.59;;;12.02;46.43
74936;BME280;63501;55.570;37.488;2023-04-25T02:50:45;98808.47;;;12.01;46.54
74936;BME280;63501;55.570;37.488;2023-04-25T02:53:13;98811.72;;;11.96;46.93
74936;BME280;63501;55.570;37.488;2023-04-25T02:55:40;98808.19;;;11.91;46.71
74936;BME280;63501;55.570;37.488;2023-04-25T02:58:08;98810.53;;;11.93;46.90
74936;BME280;63501;55.570;37.488;2023-04-25T03:00:35;98809.72;;;11.96;47.18
74936;BME280;63501;55.570;37.488;2023-04-25T03:03:04;98814.06;;;11.97;47.07
74936;BME280;63501;55.570;37.488;2023-04-25T03:05:32;98823.56;;;11.96;47.04
74936;BME280;63501;55.570;37.488;2023-04-25T03:08:02;98817.72;;;11.90;47.57
74936;BME280;63501;55.570;37.488;2023-04-25T03:10:32;98809.00;;;11.88;47.32
74936;BME280;63501;55.570;37.488;2023-04-25T03:12:59;98805.53;;;11.84;47.55
74936;BME280;63501;55.570;37.488;2023-04-25T03:15:26;98812.25;;;11.83;47.53
74936;BME280;63501;55.570;37.488;2023-04-25T03:17:53;98807.91;;;11.82;47.65
74936;BME280;63501;55.570;37.488;2023-04-25T03:20:21;98812.66;;;11.78;48.13
74936;BME280;63501;55.570;37.488;2023-04-25T03:22:51;98820.97;;;11.78;48.00
74936;BME280;63501;55.570;37.488;2023-04-25T03:25:18;98825.34;;;11.79;47.83
74936;BME280;63501;55.570;37.488;2023-04-25T03:27:47;98830.50;;;11.77;48.15
74936;BME280;63501;55.570;37.488;2023-04-25T03:30:15;98831.34;;;11.74;48.36
74936;BME280;63501;55.570;37.488;2023-04-25T03:32:44;98825.81;;;11.74;48.41
74936;BME280;63501;55.570;37.488;2023-04-25T03:35:13;98828.19;;;11.72;48.51
74936;BME280;63501;55.570;37.488;2023-04-25T03:37:47;98826.25;;;11.69;48.72
74936;BME280;63501;55.570;37.488;2023-04-25T03:40:16;98818.38;;;11.68;48.81
74936;BME280;63501;55.570;37.488;2023-04-25T03:42:46;98826.72;;;11.64;48.93
74936;BME280;63501;55.570;37.488;2023-04-25T03:45:17;98817.66;;;11.60;48.80
74936;BME280;63501;55.570;37.488;2023-04-25T03:47:45;98823.19;;;11.60;49.32
74936;BME280;63501;55.570;37.488;2023-04-25T03:50:14;98821.16;;;11.64;49.05
74936;BME280;63501;55.570;37.488;2023-04-25T03:52:41;98812.78;;;11.71;49.37
74936;BME280;63501;55.570;37.488;2023-04-25T03:55:09;98818.22;;;11.82;49.27
74936;BME280;63501;55.570;37.488;2023-04-25T03:57:40;98815.34;;;11.89;49.41
74936;BME280;63501;55.570;37.488;2023-04-25T04:00:08;98816.09;;;11.93;49.47
74936;BME280;63501;55.570;37.488;2023-04-25T04:02:35;98817.72;;;11.90;49.15
74936;BME280;63501;55.570;37.488;2023-04-25T04:05:05;98814.94;;;11.90;49.09
74936;BME280;63501;55.570;37.488;2023-04-25T04:07:34;98821.66;;;11.89;49.22
74936;BME280;63501;55.570;37.488;2023-04-25T04:10:06;98820.81;;;11.96;49.83
74936;BME280;63501;55.570;37.488;2023-04-25T04:12:32;98815.28;;;11.96;49.30
74936;BME280;63501;55.570;37.488;2023-04-25T04:15:01;98814.75;;;12.05;49.25
74936;BME280;63501;55.570;37.488;2023-04-25T04:17:30;98817.41;;;12.12;49.35
74936;BME280;63501;55.570;37.488;2023-04-25T04:20:00;98814.97;;;12.17;49.56
74936;BME280;63501;55.570;37.488;2023-04-25T04:22:29;98816.47;;;12.22;49.55
74936;BME280;63501;55.570;37.488;2023-04-25T04:24:56;98815.66;;;12.25;49.64
74936;BME280;63501;55.570;37.488;2023-04-25T04:27:23;98818.00;;;12.27;49.73
74936;BME280;63501;55.570;37.488;2023-04-25T04:29:50;98806.03;;;12.33;49.77
74936;BME280;63501;55.570;37.488;2023-04-25T04:32:20;98807.13;;;12.39;49.67
74936;BME280;63501;55.570;37.488;2023-04-25T04:34:49;98795.94;;;12.47;49.40
74936;BME280;63501;55.570;37.488;2023-04-25T04:37:16;98807.25;;;12.56;49.72
74936;BME280;63501;55.570;37.488;2023-04-25T04:39:45;98806.31;;;12.66;49.31
74936;BME280;63501;55.570;37.488;2023-04-25T04:42:14;98811.75;;;12.73;49.27
74936;BME280;63501;55.570;37.488;2023-04-25T04:44:41;98800.91;;;12.82;49.14
74936;BME280;63501;55.570;37.488;2023-04-25T04:47:10;98801.16;;;12.91;49.05
74936;BME280;63501;55.570;37.488;2023-04-25T04:49:40;98798.38;;;12.91;49.22
74936;BME280;63501;55.570;37.488;2023-04-25T04:52:10;98798.28;;;12.95;48.89
74936;BME280;63501;55.570;37.488;2023-04-25T04:54:39;98798.97;;;13.03;48.94
74936;BME280;63501;55.570;37.488;2023-04-25T04:57:07;98805.03;;;13.17;48.73
74936;BME280;63501;55.570;37.488;2023-04-25T04:59:38;98787.38;;;13.31;48.85
74936;BME280;63501;55.570;37.488;2023-04-25T05:02:05;98792.28;;;13.43;48.56
74936;BME280;63501;55.570;37.488;2023-04-25T05:04:32;98782.59;;;13.52;48.50
74936;BME280;63501;55.570;37.488;2023-04-25T05:07:01;98788.38;;;13.61;48.37
74936;BME280;63501;55.570;37.488;2023-04-25T05:09:28;98787.38;;;13.71;48.54
74936;BME280;63501;55.570;37.488;2023-04-25T05:11:58;98783.59;;;13.81;48.38
74936;BME280;63501;55.570;37.488;2023-04-25T05:14:26;98789.00;;;13.88;47.86
74936;BME280;63501;55.570;37.488;2023-04-25T05:16:53;98783.28;;;13.95;47.56
74936;BME280;63501;55.570;37.488;2023-04-25T05:19:20;98773.59;;;14.03;47.05
74936;BME280;63501;55.570;37.488;2023-04-25T05:21:49;98780.53;;;14.12;47.85
74936;BME280;63501;55.570;37.488;2023-04-25T05:24:17;98775.97;;;14.21;47.45
74936;BME280;63501;55.570;37.488;2023-04-25T05:26:47;98769.78;;;14.30;46.98
74936;BME280;63501;55.570;37.488;2023-04-25T05:29:15;98776.06;;;14.34;47.59
74936;BME280;63501;55.570;37.488;2023-04-25T05:31:42;98771.19;;;14.38;46.96
74936;BME280;63501;55.570;37.488;2023-04-25T05:34:10;98777.81;;;14.44;46.59
74936;BME280;63501;55.570;37.488;2023-04-25T05:36:38;98769.31;;;14.51;46.56
74936;BME280;63501;55.570;37.488;2023-04-25T05:39:05;98777.84;;;14.61;46.42
74936;BME280;63501;55.570;37.488;2023-04-25T05:41:35;98778.56;;;14.65;46.26
74936;BME280;63501;55.570;37.488;2023-04-25T05:44:07;98768.09;;;14.69;47.01
74936;BME280;63501;55.570;37.488;2023-04-25T05:46:37;98767.38;;;14.81;46.18
74936;BME280;63501;55.570;37.488;2023-04-25T05:49:04;98770.88;;;14.85;46.14
74936;BME280;63501;55.570;37.488;2023-04-25T05:51:33;98766.78;;;14.90;46.96
74936;BME280;63501;55.570;37.488;2023-04-25T05:54:00;98759.25;;;15.03;46.00
74936;BME280;63501;55.570;37.488;2023-04-25T05:56:28;98758.81;;;15.21;45.66
74936;BME280;63501;55.570;37.488;2023-04-25T05:58:56;98757.19;;;15.36;45.27
74936;BME280;63501;55.570;37.488;2023-04-25T06:01:24;98754.22;;;15.43;45.30
74936;BME280;63501;55.570;37.488;2023-04-25T06:03:53;98754.53;;;15.45;46.01
74936;BME280;63501;55.570;37.488;2023-04-25T06:06:20;98751.75;;;15.45;45.44
74936;BME280;63501;55.570;37.488;2023-04-25T06:08:49;98751.22;;;15.50;45.65
74936;BME280;63501;55.570;37.488;2023-04-25T06:11:17;98745.75;;;15.59;45.47
74936;BME280;63501;55.570;37.488;2023-04-25T06:13:45;98732.44;;;15.67;45.24
74936;BME280;63501;55.570;37.488;2023-04-25T06:16:17;98731.78;;;15.76;45.31
74936;BME280;63501;55.570;37.488;2023-04-25T06:18:45;98727.03;;;15.89;44.65
74936;BME280;63501;55.570;37.488;2023-04-25T06:21:15;98725.00;;;16.02;44.81
74936;BME280;63501;55.570;37.488;2023-04-25T06:23:42;98723.78;;;16.03;44.62
74936;BME280;63501;55.570;37.488;2023-04-25T06:26:09;98722.53;;;16.04;44.54
74936;BME280;63501;55.570;37.488;2023-04-25T06:28:36;98718.56;;;16.05;44.33
74936;BME280;63501;55.570;37.488;2023-04-25T06:31:03;98720.44;;;16.08;43.58
74936;BME280;63501;55.570;37.488;2023-04-25T06:33:33;98721.13;;;16.12;43.03
74936;BME280;63501;55.570;37.488;2023-04-25T06:36:02;98718.00;;;16.23;42.99
74936;BME280;63501;55.570;37.488;2023-04-25T06:38:29;98719.66;;;16.33;42.81
74936;BME280;63501;55.570;37.488;2023-04-25T06:40:57;98707.34;;;16.44;42.04
74936;BME280;63501;55.570;37.488;2023-04-25T06:43:24;98711.13;;;16.50;42.82
74936;BME280;63501;55.570;37.488;2023-04-25T06:45:52;98715.56;;;16.60;41.73
74936;BME280;63501;55.570;37.488;2023-04-25T06:48:20;98718.56;;;16.65;41.95
74936;BME280;63501;55.570;37.488;2023-04-25T06:50:51;98717.16;;;16.74;41.52
74936;BME280;63501;55.570;37.488;2023-04-25T06:53:18;98716.00;;;16.84;41.20
74936;BME280;63501;55.570;37.488;2023-04-25T06:55:48;98719.44;;;16.88;40.63
74936;BME280;63501;55.570;37.488;2023-04-25T06:58:15;98705.06;;;16.89;40.34
74936;BME280;63501;55.570;37.488;2023-04-25T07:00:42;98718.56;;;16.91;40.69
74936;BME280;63501;55.570;37.488;2023-04-25T07:03:09;98718.56;;;16.91;40.21
74936;BME280;63501;55.570;37.488;2023-04-25T07:05:36;98716.34;;;16.86;40.58
74936;BME280;63501;55.570;37.488;2023-04-25T07:08:05;98720.09;;;16.92;40.99
74936;BME280;63501;55.570;37.488;2023-04-25T07:10:33;98711.47;;;16.99;40.27
74936;BME280;63501;55.570;37.488;2023-04-25T07:13:02;98720.72;;;17.09;39.65
74936;BME280;63501;55.570;37.488;2023-04-25T07:15:29;98711.44;;;17.12;39.90
74936;BME280;63501;55.570;37.488;2023-04-25T07:17:56;98710.97;;;17.13;39.83
74936;BME280;63501;55.570;37.488;2023-04-25T07:20:24;98705.59;;;17.19;39.84
74936;BME280;63501;55.570;37.488;2023-04-25T07:22:53;98704.44;;;17.29;39.67
74936;BME280;63501;55.570;37.488;2023-04-25T07:25:22;98707.53;;;17.31;39.74
74936;BME280;63501;55.570;37.488;2023-04-25T07:27:49;98708.97;;;17.36;39.75
74936;BME280;63501;55.570;37.488;2023-04-25T07:30:16;98703.44;;;17.45;39.42
74936;BME280;63501;55.570;37.488;2023-04-25T07:32:43;98709.41;;;17.56;39.12
74936;BME280;63501;55.570;37.488;2023-04-25T07:35:11;98707.91;;;17.64;38.88
74936;BME280;63501;55.570;37.488;2023-04-25T07:37:39;98711.88;;;17.76;38.83
74936;BME280;63501;55.570;37.488;2023-04-25T07:40:07;98712.72;;;17.86;38.72
74936;BME280;63501;55.570;37.488;2023-04-25T07:42:37;98705.28;;;17.92;38.77
74936;BME280;63501;55.570;37.488;2023-04-25T07:45:07;98711.19;;;17.94;38.28
74936;BME280;63501;55.570;37.488;2023-04-25T07:47:34;98706.09;;;18.02;38.25
74936;BME280;63501;55.570;37.488;2023-04-25T07:50:03;98698.84;;;18.13;38.26
74936;BME280;63501;55.570;37.488;2023-04-25T07:52:30;98702.31;;;18.27;38.09
74936;BME280;63501;55.570;37.488;2023-04-25T07:54:57;98701.72;;;18.41;37.87
74936;BME280;63501;55.570;37.488;2023-04-25T07:57:24;98702.97;;;18.49;37.81
74936;BME280;63501;55.570;37.488;2023-04-25T07:59:53;98692.59;;;18.59;37.40
74936;BME280;63501;55.570;37.488;2023-04-25T08:02:20;98713.00;;;18.68;37.23
74936;BME280;63501;55.570;37.488;2023-04-25T08:04:47;98719.09;;;18.76;36.95
74936;BME280;63501;55.570;37.488;2023-04-25T08:07:15;98709.31;;;18.81;36.49
74936;BME280;63501;55.570;37.488;2023-04-25T08:09:43;98718.00;;;19.01;36.85
74936;BME280;63501;55.570;37.488;2023-04-25T08:12:11;98709.63;;;19.10;35.96
74936;BME280;63501;55.570;37.488;2023-04-25T08:14:38;98704.94;;;19.07;36.32
74936;BME280;63501;55.570;37.488;2023-04-25T08:17:07;98693.88;;;18.85;36.33
74936;BME280;63501;55.570;37.488;2023-04-25T08:19:34;98691.84;;;18.67;36.59
74936;BME280;63501;55.570;37.488;2023-04-25T08:22:01;98696.38;;;18.83;36.30
74936;BME280;63501;55.570;37.488;2023-04-25T08:24:29;98693.59;;;19.11;36.12
74936;BME280;63501;55.570;37.488;2023-04-25T08:26:56;98687.50;;;19.31;35.82
74936;BME280;63501;55.570;37.488;2023-04-25T08:29:26;98683.41;;;19.41;35.79
74936;BME280;63501;55.570;37.488;2023-04-25T08:31:54;98687.81;;;19.42;35.27
74936;BME280;63501;55.570;37.488;2023-04-25T08:34:24;98689.34;;;19.43;35.63
74936;BME280;63501;55.570;37.488;2023-04-25T08:36:51;98687.13;;;19.47;35.09
74936;BME280;63501;55.570;37.488;2023-04-25T08:39:18;98676.25;;;19.49;35.36
74936;BME280;63501;55.570;37.488;2023-04-25T08:41:46;98677.47;;;19.57;35.25
74936;BME280;63501;55.570;37.488;2023-04-25T08:44:13;98683.72;;;19.70;35.25
74936;BME280;63501;55.570;37.488;2023-04-25T08:46:41;98671.25;;;19.71;34.71
74936;BME280;63501;55.570;37.488;2023-04-25T08:49:08;98675.09;;;19.83;34.65
74936;BME280;63501;55.570;37.488;2023-04-25T08:51:43;98662.38;;;20.06;34.05
74936;BME280;63501;55.570;37.488;2023-04-25T08:54:14;98656.56;;;20.43;33.77
74936;BME280;63501;55.570;37.488;2023-04-25T08:56:45;98655.06;;;21.49;33.86
74936;BME280;63501;55.570;37.488;2023-04-25T08:59:14;98646.66;;;22.28;31.68
74936;BME280;63501;55.570;37.488;2023-04-25T09:01:42;98648.84;;;22.59;31.17
74936;BME280;63501;55.570;37.488;2023-04-25T09:04:11;98632.97;;;23.03;31.46
74936;BME280;63501;55.570;37.488;2023-04-25T09:06:41;98642.19;;;23.23;30.87
74936;BME280;63501;55.570;37.488;2023-04-25T09:09:08;98635.00;;;23.54;30.61
74936;BME280;63501;55.570;37.488;2023-04-25T09:11:39;98635.50;;;23.79;30.21
74936;BME280;63501;55.570;37.488;2023-04-25T09:14:12;98629.88;;;23.84;30.13
74936;BME280;63501;55.570;37.488;2023-04-25T09:16:57;98628.31;;;24.15;29.88
74936;BME280;63501;55.570;37.488;2023-04-25T09:19:27;98618.06;;;24.66;29.18
74936;BME280;63501;55.570;37.488;2023-04-25T09:21:57;98623.34;;;25.12;29.10
74936;BME280;63501;55.570;37.488;2023-04-25T09:24:33;98616.97;;;25.28;28.59
74936;BME280;63501;55.570;37.488;2023-04-25T09:27:04;98609.28;;;25.79;27.86
74936;BME280;63501;55.570;37.488;2023-04-25T09:29:34;98606.91;;;26.17;27.46
74936;BME280;63501;55.570;37.488;2023-04-25T09:32:19;98602.50;;;26.91;26.84
74936;BME280;63501;55.570;37.488;2023-04-25T09:34:58;98598.53;;;27.82;26.17
74936;BME280;63501;55.570;37.488;2023-04-25T09:37:31;98597.69;;;28.61;25.47
74936;BME280;63501;55.570;37.488;2023-04-25T09:40:00;98589.69;;;29.35;24.72
74936;BME280;63501;55.570;37.488;2023-04-25T09:42:31;98576.09;;;29.92;23.98
74936;BME280;63501;55.570;37.488;2023-04-25T09:45:03;98587.53;;;29.60;23.87
74936;BME280;63501;55.570;37.488;2023-04-25T09:47:31;98583.28;;;29.15;23.96
74936;BME280;63501;55.570;37.488;2023-04-25T09:50:02;98575.06;;;29.44;23.53
74936;BME280;63501;55.570;37.488;2023-04-25T09:52:34;98566.56;;;30.02;23.09
74936;BME280;63501;55.570;37.488;2023-04-25T09:55:11;98561.00;;;30.37;22.67
74936;BME280;63501;55.570;37.488;2023-04-25T09:57:48;98570.84;;;30.36;22.13
74936;BME280;63501;55.570;37.488;2023-04-25T10:00:17;98571.25;;;30.00;22.51
74936;BME280;63501;55.570;37.488;2023-04-25T10:02:47;98563.13;;;29.77;22.42
74936;BME280;63501;55.570;37.488;2023-04-25T10:05:15;98579.91;;;29.81;22.17
74936;BME280;63501;55.570;37.488;2023-04-25T10:07:44;98569.81;;;29.80;22.13
74936;BME280;63501;55.570;37.488;2023-04-25T10:10:13;98555.38;;;29.91;22.04
74936;BME280;63501;55.570;37.488;2023-04-25T10:12:41;98553.53;;;30.34;21.64
74936;BME280;63501;55.570;37.488;2023-04-25T10:15:15;98551.28;;;30.66;21.37
74936;BME280;63501;55.570;37.488;2023-04-25T10:17:42;98567.44;;;30.77;21.45
74936;BME280;63501;55.570;37.488;2023-04-25T10:20:11;98552.19;;;30.35;21.75
74936;BME280;63501;55.570;37.488;2023-04-25T10:22:42;98564.53;;;29.71;21.70
74936;BME280;63501;55.570;37.488;2023-04-25T10:25:26;98553.19;;;29.52;21.99
74936;BME280;63501;55.570;37.488;2023-04-25T10:27:54;98552.94;;;29.82;21.97
74936;BME280;63501;55.570;37.488;2023-04-25T10:30:23;98544.94;;;29.81;21.80
74936;BME280;63501;55.570;37.488;2023-04-25T10:32:54;98552.97;;;28.42;22.77
74936;BME280;63501;55.570;37.488;2023-04-25T10:35:25;98554.09;;;27.25;23.41
74936;BME280;63501;55.570;37.488;2023-04-25T10:38:04;98542.41;;;27.64;22.80
74936;BME280;63501;55.570;37.488;2023-04-25T10:40:34;98543.06;;;28.25;22.70
74936;BME280;63501;55.570;37.488;2023-04-25T10:43:36;98548.97;;;28.70;22.26
74936;BME280;63501;55.570;37.488;2023-04-25T10:46:13;98539.22;;;28.46;22.55
74936;BME280;63501;55.570;37.488;2023-04-25T10:48:48;98533.13;;;28.37;22.52
74936;BME280;63501;55.570;37.488;2023-04-25T10:51:18;98530.66;;;28.84;22.34
74936;BME280;63501;55.570;37.488;2023-04-25T10:53:46;98528.75;;;28.92;22.20
74936;BME280;63501;55.570;37.488;2023-04-25T10:56:20;98520.22;;;28.92;22.32
74936;BME280;63501;55.570;37.488;2023-04-25T10:58:48;98518.63;;;28.97;22.18
74936;BME280;63501;55.570;37.488;2023-04-25T11:01:20;98520.44;;;28.94;22.26
74936;BME280;63501;55.570;37.488;2023-04-25T11:03:49;98505.16;;;28.97;22.40
74936;BME280;63501;55.570;37.488;2023-04-25T11:06:30;98511.41;;;28.96;22.05
74936;BME280;63501;55.570;37.488;2023-04-25T11:09:01;98506.41;;;29.15;22.20
74936;BME280;63501;55.570;37.488;2023-04-25T11:11:31;98507.72;;;29.14;22.00
74936;BME280;63501;55.570;37.488;2023-04-25T11:14:00;98504.22;;;29.08;21.95
74936;BME280;63501;55.570;37.488;2023-04-25T11:16:32;98497.31;;;29.17;22.07
74936;BME280;63501;55.570;37.488;2023-04-25T11:19:01;98494.81;;;29.13;21.97
74936;BME280;63501;55.570;37.488;2023-04-25T11:21:30;98492.47;;;28.98;22.03
74936;BME280;63501;55.570;37.488;2023-04-25T11:23:59;98483.94;;;28.80;22.22
74936;BME280;63501;55.570;37.488;2023-04-25T11:26:32;98485.78;;;28.39;22.50
74936;BME280;63501;55.570;37.488;2023-04-25T11:29:00;98493.91;;;27.86;22.38
74936;BME280;63501;55.570;37.488;2023-04-25T11:31:37;98487.72;;;27.58;22.52
74936;BME280;63501;55.570;37.488;2023-04-25T11:34:09;98482.38;;;27.49;22.94
74936;BME280;63501;55.570;37.488;2023-04-25T11:36:36;98485.09;;;27.35;22.45
74936;BME280;63501;55.570;37.488;2023-04-25T11:39:20;98481.94;;;27.14;22.88
74936;BME280;63501;55.570;37.488;2023-04-25T11:41:49;98487.03;;;26.86;22.73
74936;BME280;63501;55.570;37.488;2023-04-25T11:44:17;98484.97;;;26.40;23.47
74936;BME280;63501;55.570;37.488;2023-04-25T11:46:55;98475.91;;;25.89;23.97
74936;BME280;63501;55.570;37.488;2023-04-25T11:49:23;98474.13;;;25.69;23.68
74936;BME280;63501;55.570;37.488;2023-04-25T11:52:02;98476.78;;;25.33;23.95
74936;BME280;63501;55.570;37.488;2023-04-25T11:54:35;98462.91;;;25.18;24.47
74936;BME280;63501;55.570;37.488;2023-04-25T11:57:09;98462.13;;;25.29;24.37
74936;BME280;63501;55.570;37.488;2023-04-25T11:59:50;98469.28;;;25.47;24.02
74936;BME280;63501;55.570;37.488;2023-04-25T12:02:23;98458.47;;;25.51;24.05
74936;BME280;63501;55.570;37.488;2023-04-25T12:04:59;98455.41;;;25.49;24.19
74936;BME280;63501;55.570;37.488;2023-04-25T12:07:29;98461.09;;;25.38;24.06
74936;BME280;63501;55.570;37.488;2023-04-25T12:09:57;98457.00;;;25.11;24.26
74936;BME280;63501;55.570;37.488;2023-04-25T12:12:28;98453.91;;;24.97;24.62
74936;BME280;63501;55.570;37.488;2023-04-25T12:15:12;98455.44;;;25.04;24.59
74936;BME280;63501;55.570;37.488;2023-04-25T12:18:22;98450.00;;;24.67;25.07
74936;BME280;63501;55.570;37.488;2023-04-25T12:20:52;98449.13;;;24.21;25.75
74936;BME280;63501;55.570;37.488;2023-04-25T12:23:25;98444.88;;;23.83;25.73
74936;BME280;63501;55.570;37.488;2023-04-25T12:25:59;98441.69;;;23.64;26.23
74936;BME280;63501;55.570;37.488;2023-04-25T12:28:31;98435.22;;;23.58;26.70
74936;BME280;63501;55.570;37.488;2023-04-25T12:31:02;98434.72;;;23.60;26.37
74936;BME280;63501;55.570;37.488;2023-04-25T12:33:45;98437.72;;;23.50;26.45
74936;BME280;63501;55.570;37.488;2023-04-25T12:36:13;98434.63;;;23.43;26.86
74936;BME280;63501;55.570;37.488;2023-04-25T12:38:42;98432.81;;;23.45;26.67
74936;BME280;63501;55.570;37.488;2023-04-25T12:41:33;98417.44;;;23.41;27.19
74936;BME280;63501;55.570;37.488;2023-04-25T12:44:11;98418.00;;;23.50;26.46
74936;BME280;63501;55.570;37.488;2023-04-25T12:46:40;98420.81;;;23.50;26.60
74936;BME280;63501;55.570;37.488;2023-04-25T12:49:13;98415.38;;;23.41;26.91
74936;BME280;63501;55.570;37.488;2023-04-25T12:51:54;98417.66;;;23.37;27.23
74936;BME280;63501;55.570;37.488;2023-04-25T12:54:28;98403.59;;;23.91;26.42
74936;BME280;63501;55.570;37.488;2023-04-25T12:56:57;98399.66;;;24.60;26.11
74936;BME280;63501;55.570;37.488;2023-04-25T12:59:28;98384.00;;;25.09;25.54
74936;BME280;63501;55.570;37.488;2023-04-25T13:01:56;98380.84;;;25.24;25.89